Time;durP1;ratioP1;P1;durP2;ratioP2;P2;SDS_P1;SDS_P2;PMS_P1;PMS_P2;Temp;Humidity;BMP_temperature;BMP_pressure;BME280_temperature;BME280_humidity;BME280_pressure;Samples;Min_cycle;Max_cycle;Signal;HPM_P1;HPM_P2
2022/05/19 00:01:50;;;;;;;0.47;0.47;;;14.00;99.90;;;;;;5059387;28;20033;-81
2022/05/19 00:04:16;;;;;;;0.75;0.73;;;14.00;99.90;;;;;;5060103;28;20053;-81
2022/05/19 00:06:42;;;;;;;0.10;0.10;;;14.00;99.90;;;;;;5043507;28;20127;-81
2022/05/19 00:09:08;;;;;;;0.17;0.17;;;14.00;99.90;;;;;;5062062;28;20036;-84
2022/05/19 00:11:34;;;;;;;0.30;0.30;;;14.00;99.90;;;;;;5043235;28;20045;-85
2022/05/19 00:14:01;;;;;;;0.63;0.63;;;14.00;99.90;;;;;;5060820;28;20482;-84
2022/05/19 00:16:27;;;;;;;0.30;0.30;;;14.00;99.90;;;;;;5060750;28;20394;-85
2022/05/19 00:18:53;;;;;;;0.10;0.10;;;14.00;99.90;;;;;;5040348;28;20049;-85
2022/05/19 00:21:19;;;;;;;0.30;0.20;;;13.90;99.90;;;;;;5060881;28;20044;-84
2022/05/19 00:23:45;;;;;;;0.28;0.28;;;14.00;99.90;;;;;;5061004;28;20054;-85
2022/05/19 00:26:11;;;;;;;1.73;0.75;;;13.90;99.90;;;;;;5061394;28;20040;-83
2022/05/19 00:28:37;;;;;;;0.43;0.32;;;13.90;99.90;;;;;;5038211;28;20047;-82
2022/05/19 00:31:03;;;;;;;0.10;0.10;;;13.90;99.90;;;;;;5054673;28;20406;-82
2022/05/19 00:33:29;;;;;;;0.20;0.20;;;13.90;99.90;;;;;;5036634;28;20505;-82
2022/05/19 00:35:54;;;;;;;0.30;0.30;;;13.90;99.90;;;;;;5035178;28;20120;-82
2022/05/19 00:38:21;;;;;;;0.28;0.28;;;13.80;99.90;;;;;;5057702;28;20045;-82
2022/05/19 00:40:54;;;;;;;0.38;0.38;;;13.80;99.90;;;;;;5041075;28;20390;-82
2022/05/19 00:43:32;;;;;;;0.20;0.20;;;13.90;99.90;;;;;;5060339;28;20043;-82
2022/05/19 00:46:07;;;;;;;0.25;0.25;;;13.90;99.90;;;;;;5038748;28;20079;-82
2022/05/19 00:48:45;;;;;;;0.17;0.17;;;13.90;99.90;;;;;;5055382;28;20079;-82
2022/05/19 00:51:11;;;;;;;0.10;0.10;;;13.90;99.90;;;;;;5055219;28;20094;-82
2022/05/19 00:54:05;;;;;;;0.08;0.08;;;14.00;99.90;;;;;;5056503;28;20029;-82
2022/05/19 00:56:37;;;;;;;0.15;0.15;;;13.90;99.90;;;;;;5055151;28;20101;-82
2022/05/19 00:59:07;;;;;;;0.22;0.17;;;14.00;99.90;;;;;;5057136;28;20653;-81
2022/05/19 01:01:35;;;;;;;0.20;0.20;;;14.00;99.90;;;;;;5038202;28;20040;-81
2022/05/19 01:04:09;;;;;;;0.57;0.40;;;14.00;99.90;;;;;;5052119;28;20148;-81
2022/05/19 01:06:37;;;;;;;0.22;0.22;;;14.00;99.90;;;;;;5052948;28;20040;-81
2022/05/19 01:09:11;;;;;;;0.52;0.47;;;14.00;99.90;;;;;;5033866;28;20396;-81
2022/05/19 01:11:38;;;;;;;0.60;0.50;;;13.90;99.90;;;;;;5044793;28;20041;-81
2022/05/19 01:14:06;;;;;;;0.57;0.40;;;13.90;99.90;;;;;;5052843;28;20486;-81
2022/05/19 01:16:32;;;;;;;1.17;0.50;;;13.90;99.90;;;;;;5052672;28;20041;-81
2022/05/19 01:18:59;;;;;;;0.57;0.50;;;14.00;99.90;;;;;;5034898;28;20044;-81
2022/05/19 01:21:28;;;;;;;1.75;1.00;;;13.90;99.90;;;;;;5052916;28;20438;-81
2022/05/19 01:24:11;;;;;;;0.60;0.57;;;13.90;99.90;;;;;;5052773;28;20123;-81
2022/05/19 01:26:40;;;;;;;0.85;0.85;;;14.00;99.90;;;;;;5035539;28;20059;-81
2022/05/19 01:29:08;;;;;;;0.20;0.20;;;14.00;99.90;;;;;;5052983;28;20120;-81
2022/05/19 01:31:43;;;;;;;0.55;0.45;;;14.00;99.90;;;;;;5069643;28;20381;-81
2022/05/19 01:34:09;;;;;;;0.10;0.10;;;14.00;99.90;;;;;;5052056;28;20111;-82
2022/05/19 01:36:35;;;;;;;0.20;0.20;;;14.10;99.90;;;;;;5035949;28;20041;-82
2022/05/19 01:39:12;;;;;;;0.03;0.03;;;14.10;99.90;;;;;;5032791;28;20116;-82
2022/05/19 01:42:27;;;;;;;3.28;0.60;;;14.20;99.90;;;;;;5068944;28;20048;-82
2022/05/19 01:45:13;;;;;;;0.40;0.40;;;14.20;99.90;;;;;;5030355;28;20076;-82
2022/05/19 01:48:00;;;;;;;0.40;0.40;;;14.20;99.90;;;;;;5068796;28;20116;-82
2022/05/19 01:50:25;;;;;;;0.25;0.25;;;14.20;99.90;;;;;;5052166;28;20037;-82
2022/05/19 01:53:08;;;;;;;0.20;0.20;;;14.20;99.90;;;;;;5052320;28;20048;-82
2022/05/19 01:56:15;;;;;;;0.10;0.10;;;14.20;99.90;;;;;;5061087;28;20364;-82
2022/05/19 01:58:58;;;;;;;0.30;0.30;;;14.20;99.90;;;;;;5044124;28;20049;-82
2022/05/19 02:01:26;;;;;;;0.43;0.43;;;14.20;99.90;;;;;;5052224;28;20117;-82
2022/05/19 02:04:04;;;;;;;0.65;0.40;;;14.20;99.90;;;;;;5067101;28;20041;-82
2022/05/19 02:06:36;;;;;;;0.20;0.20;;;14.20;99.90;;;;;;5041999;28;20053;-82
2022/05/19 02:09:10;;;;;;;0.32;0.32;;;14.20;99.90;;;;;;5039307;28;20052;-82
2022/05/19 02:11:45;;;;;;;0.45;0.45;;;14.20;99.90;;;;;;5052205;28;20051;-82
2022/05/19 02:14:22;;;;;;;0.80;0.80;;;14.20;99.90;;;;;;5028925;28;20562;-82
2022/05/19 02:16:49;;;;;;;0.30;0.30;;;14.20;99.90;;;;;;5049228;28;20044;-82
2022/05/19 02:19:22;;;;;;;0.45;0.45;;;14.20;99.90;;;;;;5051515;28;20383;-82
2022/05/19 02:21:48;;;;;;;1.38;1.27;;;14.20;99.90;;;;;;5052180;28;20047;-82
2022/05/19 02:24:19;;;;;;;0.70;0.63;;;14.30;99.90;;;;;;5052102;28;20041;-82
2022/05/19 02:26:45;;;;;;;0.65;0.65;;;14.30;99.90;;;;;;5052431;28;20052;-82
2022/05/19 02:29:17;;;;;;;0.98;0.80;;;14.30;99.90;;;;;;5052243;28;20044;-82
2022/05/19 02:31:44;;;;;;;2.63;1.23;;;14.40;99.90;;;;;;5052555;28;20149;-82
2022/05/19 02:34:10;;;;;;;0.32;0.32;;;14.40;99.90;;;;;;5050611;28;20407;-82
2022/05/19 02:36:36;;;;;;;0.25;0.25;;;14.40;99.90;;;;;;5051931;28;20041;-82
2022/05/19 02:39:02;;;;;;;1.55;0.65;;;14.50;99.90;;;;;;5035435;28;20128;-85
2022/05/19 02:41:28;;;;;;;1.65;1.55;;;14.50;99.90;;;;;;5068901;28;20124;-85
2022/05/19 02:43:53;;;;;;;1.05;1.00;;;14.60;99.90;;;;;;5035531;28;20050;-85
2022/05/19 02:46:19;;;;;;;2.72;0.85;;;14.60;99.90;;;;;;4999733;28;20055;-85
2022/05/19 02:48:45;;;;;;;0.70;0.57;;;14.70;99.90;;;;;;5050301;28;20433;-85
2022/05/19 02:51:11;;;;;;;0.75;0.75;;;14.80;99.90;;;;;;5016429;28;20068;-85
2022/05/19 02:53:37;;;;;;;0.80;0.80;;;14.80;99.90;;;;;;5048059;28;20038;-85
2022/05/19 02:56:03;;;;;;;0.82;0.80;;;14.90;99.90;;;;;;5044948;28;20043;-81
2022/05/19 02:58:28;;;;;;;1.10;0.98;;;14.90;99.90;;;;;;5051418;28;20123;-81
2022/05/19 03:00:54;;;;;;;0.63;0.63;;;14.90;99.90;;;;;;5033004;28;20043;-81
2022/05/19 03:03:20;;;;;;;0.77;0.77;;;15.00;99.90;;;;;;5032795;28;20057;-81
2022/05/19 03:05:46;;;;;;;0.38;0.38;;;15.00;99.90;;;;;;5051226;28;20048;-81
2022/05/19 03:08:12;;;;;;;21.20;2.08;;;15.00;99.90;;;;;;5063624;28;20052;-81
2022/05/19 03:10:40;;;;;;;1.35;0.93;;;15.00;99.90;;;;;;5034870;28;20119;-81
2022/05/19 03:13:07;;;;;;;1.05;1.02;;;15.00;99.90;;;;;;5050587;28;20037;-85
2022/05/19 03:15:34;;;;;;;0.80;0.80;;;15.10;99.90;;;;;;5033078;28;20045;-85
2022/05/19 03:18:00;;;;;;;1.35;1.10;;;15.10;99.90;;;;;;5030593;28;20132;-85
2022/05/19 03:20:26;;;;;;;0.63;0.63;;;15.10;99.90;;;;;;5049896;28;20043;-85
2022/05/19 03:22:52;;;;;;;0.77;0.77;;;15.10;99.90;;;;;;5045003;28;20037;-85
2022/05/19 03:25:17;;;;;;;2.90;0.88;;;15.20;99.90;;;;;;5033876;28;20399;-85
2022/05/19 03:27:43;;;;;;;3.67;2.10;;;15.20;99.90;;;;;;5037547;28;20048;-85
2022/05/19 03:30:14;;;;;;;1.08;1.00;;;15.20;99.90;;;;;;5018020;28;20127;-85
2022/05/19 03:32:40;;;;;;;1.25;1.15;;;15.30;99.90;;;;;;5034656;28;20545;-85
2022/05/19 03:35:06;;;;;;;1.33;0.88;;;15.30;99.90;;;;;;5051408;28;20041;-85
2022/05/19 03:37:32;;;;;;;0.40;0.40;;;15.30;99.90;;;;;;5034529;28;20045;-85
2022/05/19 03:39:58;;;;;;;0.77;0.77;;;15.30;99.90;;;;;;5032721;28;20509;-85
2022/05/19 03:42:24;;;;;;;0.55;0.55;;;15.40;99.90;;;;;;5050762;28;20123;-85
2022/05/19 03:44:49;;;;;;;1.60;1.30;;;15.40;99.90;;;;;;5023765;28;20068;-85
2022/05/19 03:47:15;;;;;;;0.45;0.45;;;15.50;99.90;;;;;;5042786;28;20048;-82
2022/05/19 03:49:40;;;;;;;2.45;1.52;;;15.50;99.90;;;;;;5050450;28;20033;-82
2022/05/19 03:52:07;;;;;;;1.23;0.85;;;15.60;99.90;;;;;;5067202;28;20045;-82
2022/05/19 03:54:32;;;;;;;0.85;0.80;;;15.60;99.90;;;;;;5051161;28;20083;-82
2022/05/19 03:56:58;;;;;;;0.80;0.80;;;15.60;99.90;;;;;;5051467;28;20041;-82
2022/05/19 03:59:24;;;;;;;3.25;1.77;;;15.60;99.90;;;;;;5032908;28;20044;-82
2022/05/19 04:01:50;;;;;;;4.05;1.05;;;15.70;99.90;;;;;;5031709;28;20065;-82
2022/05/19 04:04:15;;;;;;;2.80;2.60;;;15.70;99.90;;;;;;5053119;28;20057;-81
2022/05/19 04:06:41;;;;;;;2.20;1.70;;;15.70;99.90;;;;;;5053971;28;20055;-81
2022/05/19 04:09:07;;;;;;;1.77;1.58;;;15.80;99.90;;;;;;5037940;28;20050;-81
2022/05/19 04:11:33;;;;;;;1.52;1.40;;;15.80;99.90;;;;;;5054406;28;20105;-81
2022/05/19 04:13:59;;;;;;;8.43;1.17;;;15.90;99.90;;;;;;5035278;28;20043;-81
2022/05/19 04:16:24;;;;;;;0.73;0.73;;;15.90;99.90;;;;;;5053266;28;20037;-81
2022/05/19 04:18:51;;;;;;;0.68;0.68;;;16.00;99.90;;;;;;5054173;28;20601;-83
2022/05/19 04:21:17;;;;;;;2.05;1.05;;;16.00;99.90;;;;;;5054732;28;20033;-83
2022/05/19 04:23:43;;;;;;;2.13;1.27;;;16.10;99.90;;;;;;5054532;28;20041;-82
2022/05/19 04:26:08;;;;;;;1.70;1.10;;;16.20;99.90;;;;;;5071299;28;20132;-83
2022/05/19 04:28:34;;;;;;;1.05;0.88;;;16.30;99.90;;;;;;5054895;28;20112;-83
2022/05/19 04:31:00;;;;;;;5.88;2.13;;;16.40;99.90;;;;;;5054477;28;20567;-83
2022/05/19 04:33:27;;;;;;;2.67;2.45;;;16.50;99.90;;;;;;5036683;28;20051;-83
2022/05/19 04:35:53;;;;;;;1.85;1.65;;;16.50;99.90;;;;;;5037814;28;20437;-85
2022/05/19 04:38:19;;;;;;;2.47;1.92;;;16.60;99.90;;;;;;5038165;28;20037;-85
2022/05/19 04:40:47;;;;;;;1.17;1.08;;;16.70;99.90;;;;;;5054529;28;20091;-85
2022/05/19 04:43:19;;;;;;;2.22;1.30;;;16.70;99.90;;;;;;5054526;28;20057;-85
2022/05/19 04:45:50;;;;;;;1.65;1.55;;;16.80;99.90;;;;;;5054256;28;20043;-85
2022/05/19 04:48:16;;;;;;;0.75;0.75;;;16.80;99.90;;;;;;5066308;28;20033;-85
2022/05/19 04:50:42;;;;;;;2.28;1.15;;;16.80;99.90;;;;;;5053295;28;20095;-85
2022/05/19 04:53:08;;;;;;;0.40;0.40;;;16.90;99.90;;;;;;5053872;28;20086;-81
2022/05/19 04:55:36;;;;;;;1.33;0.77;;;16.90;99.90;;;;;;5053678;28;20041;-81
2022/05/19 04:58:02;;;;;;;1.85;1.58;;;16.90;99.90;;;;;;5069731;28;20529;-81
2022/05/19 05:00:28;;;;;;;1.45;1.35;;;17.00;99.90;;;;;;5028931;28;20163;-81
2022/05/19 05:02:53;;;;;;;0.82;0.65;;;17.00;99.90;;;;;;5053749;28;20036;-81
2022/05/19 05:05:19;;;;;;;8.55;1.65;;;17.10;99.90;;;;;;5052571;28;20054;-81
2022/05/19 05:07:45;;;;;;;1.00;0.93;;;17.10;99.90;;;;;;5019672;28;20041;-81
2022/05/19 05:10:12;;;;;;;1.15;1.13;;;17.20;99.90;;;;;;5035793;28;20104;-82
2022/05/19 05:12:38;;;;;;;0.47;0.45;;;17.20;99.90;;;;;;5037193;28;20043;-83
2022/05/19 05:15:04;;;;;;;1.52;0.75;;;17.20;99.90;;;;;;5035776;28;20402;-83
2022/05/19 05:17:30;;;;;;;0.57;0.57;;;17.30;99.90;;;;;;5069223;28;20121;-82
2022/05/19 05:19:56;;;;;;;0.30;0.30;;;17.30;99.90;;;;;;5055595;22;20132;-93
2022/05/19 05:22:22;;;;;;;1.38;1.27;;;17.40;99.90;;;;;;5016047;28;21512;-93
2022/05/19 05:24:47;;;;;;;1.25;1.15;;;17.50;99.90;;;;;;5033027;28;20133;-94
2022/05/19 05:27:13;;;;;;;2.65;1.80;;;17.50;99.90;;;;;;5016566;28;20124;-92
2022/05/19 05:29:39;;;;;;;1.10;0.52;;;17.50;99.90;;;;;;5033787;28;20052;-93
2022/05/19 05:32:05;;;;;;;1.65;0.75;;;17.50;99.90;;;;;;5034159;28;20049;-94
2022/05/19 05:34:30;;;;;;;1.55;1.23;;;17.60;99.90;;;;;;5017800;28;20041;-94
2022/05/19 05:36:57;;;;;;;3.10;1.80;;;17.60;99.90;;;;;;5033863;28;20048;-93
2022/05/19 05:39:22;;;;;;;2.63;1.35;;;17.60;99.90;;;;;;5033602;28;20048;-94
2022/05/19 05:41:48;;;;;;;2.10;1.42;;;17.60;99.90;;;;;;5000935;28;20041;-93
2022/05/19 05:44:14;;;;;;;0.70;0.70;;;17.50;99.90;;;;;;5034483;28;20043;-95
2022/05/19 05:46:40;;;;;;;2.03;1.25;;;17.60;99.90;;;;;;5034956;28;20045;-95
2022/05/19 05:49:06;;;;;;;1.65;0.88;;;17.60;99.90;;;;;;5037619;28;20041;-94
2022/05/19 05:51:31;;;;;;;1.33;1.23;;;17.60;99.90;;;;;;5053718;28;20049;-95
2022/05/19 05:53:57;;;;;;;2.42;1.58;;;17.60;99.90;;;;;;5017164;28;20045;-95
2022/05/19 05:56:23;;;;;;;1.85;1.13;;;17.60;99.90;;;;;;5024494;28;20041;-95
2022/05/19 05:58:49;;;;;;;2.28;1.63;;;17.60;99.90;;;;;;5019798;28;20140;-85
2022/05/19 06:01:17;;;;;;;21.15;1.13;;;17.60;99.90;;;;;;5016492;28;20045;-85
2022/05/19 06:03:45;;;;;;;0.82;0.82;;;17.60;99.90;;;;;;5048869;28;20048;-85
2022/05/19 06:06:11;;;;;;;1.65;1.02;;;17.60;99.90;;;;;;5008668;28;20120;-85
2022/05/19 06:08:37;;;;;;;1.10;1.05;;;17.60;99.90;;;;;;5030772;28;20116;-85
2022/05/19 06:11:05;;;;;;;2.25;1.45;;;17.60;99.90;;;;;;5022103;28;20117;-84
2022/05/19 06:13:32;;;;;;;1.48;0.90;;;17.60;99.90;;;;;;5013416;28;20030;-85
2022/05/19 06:15:57;;;;;;;0.80;0.75;;;17.70;99.90;;;;;;5007813;28;20044;-94
2022/05/19 06:18:25;;;;;;;0.32;0.30;;;17.70;99.90;;;;;;4997086;28;20121;-95
2022/05/19 06:20:52;;;;;;;2.25;2.05;;;17.70;99.90;;;;;;5013219;28;20042;-95
2022/05/19 06:23:18;;;;;;;0.13;0.13;;;17.70;99.90;;;;;;5029663;28;20072;-94
2022/05/19 06:25:44;;;;;;;0.20;0.20;;;17.70;99.90;;;;;;4996323;28;20049;-94
2022/05/19 06:28:11;;;;;;;0.68;0.63;;;17.70;99.90;;;;;;5023775;28;20080;-93
2022/05/19 06:30:36;;;;;;;1.17;1.17;;;17.70;99.90;;;;;;5032745;28;20041;-93
2022/05/19 06:33:05;;;;;;;0.80;0.80;;;17.70;99.90;;;;;;5018413;28;20542;-90
2022/05/19 06:35:32;;;;;;;0.10;0.10;;;17.70;99.90;;;;;;5042064;28;20041;-89
2022/05/19 06:37:59;;;;;;;0.40;0.40;;;17.70;99.90;;;;;;5014136;28;20041;-88
2022/05/19 06:40:28;;;;;;;1.40;0.60;;;17.70;99.90;;;;;;5048200;28;20033;-88
2022/05/19 06:42:54;;;;;;;1.13;0.90;;;17.70;99.90;;;;;;5048672;28;20379;-89
2022/05/19 06:45:23;;;;;;;1.55;1.08;;;17.80;99.90;;;;;;5047575;28;20080;-89
2022/05/19 06:47:50;;;;;;;0.45;0.45;;;17.90;99.90;;;;;;5031697;28;20102;-89
2022/05/19 06:50:17;;;;;;;0.52;0.50;;;18.00;99.90;;;;;;5013266;28;20045;-89
2022/05/19 06:52:55;;;;;;;1.10;0.60;;;18.10;99.90;;;;;;5031715;28;20383;-89
2022/05/19 06:55:22;;;;;;;0.55;0.55;;;18.20;99.90;;;;;;5047953;28;20526;-90
2022/05/19 06:57:48;;;;;;;0.20;0.20;;;18.30;99.90;;;;;;5042059;28;20037;-90
2022/05/19 07:00:18;;;;;;;0.35;0.35;;;18.40;99.90;;;;;;5025026;28;20503;-90
2022/05/19 07:02:49;;;;;;;0.75;0.75;;;18.60;99.90;;;;;;5028032;28;20065;-89
2022/05/19 07:05:18;;;;;;;0.30;0.30;;;18.70;99.90;;;;;;5030286;28;20507;-85
2022/05/19 07:07:46;;;;;;;0.80;0.75;;;18.80;99.90;;;;;;5014519;28;20064;-84
2022/05/19 07:10:18;;;;;;;0.60;0.52;;;18.80;99.90;;;;;;5011285;28;20109;-84
2022/05/19 07:12:44;;;;;;;0.10;0.10;;;18.90;99.90;;;;;;5009831;28;20033;-84
2022/05/19 07:15:12;;;;;;;0.35;0.35;;;18.90;99.90;;;;;;5007652;28;20041;-83
2022/05/19 07:17:39;;;;;;;0.15;0.15;;;19.00;99.90;;;;;;5022687;28;20048;-84
2022/05/19 07:22:50;;;;;;;0.60;0.57;;;19.10;99.90;;;;;;5029683;28;20053;-95
2022/05/19 07:25:17;;;;;;;0.73;0.73;;;19.10;99.90;;;;;;5032002;28;20060;-95
2022/05/19 07:27:43;;;;;;;0.57;0.52;;;19.20;99.90;;;;;;5030971;28;20451;-94
2022/05/19 07:30:10;;;;;;;1.42;1.33;;;19.30;99.90;;;;;;5016005;28;20077;-96
2022/05/19 07:32:36;;;;;;;0.68;0.68;;;19.30;99.90;;;;;;5016737;28;20466;-95
2022/05/19 07:35:03;;;;;;;0.40;0.40;;;19.30;99.90;;;;;;5015689;28;20033;-95
2022/05/19 07:37:29;;;;;;;0.90;0.60;;;19.50;99.90;;;;;;5033371;28;20495;-94
2022/05/19 07:39:54;;;;;;;1.75;1.25;;;19.60;99.90;;;;;;4997704;28;20474;-91
2022/05/19 07:42:21;;;;;;;1.23;0.95;;;19.70;99.90;;;;;;5013293;28;20037;-92
2022/05/19 07:44:47;;;;;;;0.82;0.77;;;19.90;99.90;;;;;;5028055;28;20049;-91
2022/05/19 07:47:14;;;;;;;0.68;0.55;;;20.00;99.90;;;;;;5028355;28;20068;-93
2022/05/19 07:49:41;;;;;;;0.85;0.70;;;20.00;99.90;;;;;;5025805;28;20050;-91
2022/05/19 07:52:07;;;;;;;1.85;1.23;;;20.10;99.90;;;;;;5025128;28;20767;-90
2022/05/19 07:54:33;;;;;;;0.95;0.63;;;20.10;99.90;;;;;;5025790;28;20041;-90
2022/05/19 07:56:59;;;;;;;0.38;0.38;;;20.20;99.90;;;;;;5011909;28;20102;-83
2022/05/19 07:59:26;;;;;;;0.22;0.22;;;20.20;99.90;;;;;;4993473;28;20120;-84
2022/05/19 08:01:53;;;;;;;0.47;0.47;;;20.20;99.90;;;;;;5025181;28;20428;-83
2022/05/19 08:04:24;;;;;;;2.50;1.42;;;20.20;99.90;;;;;;5009136;28;20065;-83
2022/05/19 08:06:50;;;;;;;1.20;1.10;;;20.20;99.90;;;;;;5007582;28;20045;-83
2022/05/19 08:12:01;;;;;;;0.35;0.35;;;19.90;99.90;;;;;;5025868;28;20164;-96
2022/05/19 08:17:30;;;;;;;0.52;0.47;;;19.90;99.90;;;;;;4997552;28;20536;-95
2022/05/19 08:19:56;;;;;;;0.68;0.68;;;19.90;99.90;;;;;;4966818;28;20104;-95
2022/05/19 08:22:22;;;;;;;0.60;0.60;;;20.00;99.90;;;;;;4977256;28;20045;-95
2022/05/19 08:24:50;;;;;;;1.20;0.73;;;20.20;99.90;;;;;;5016160;28;20101;-95
2022/05/19 08:27:19;;;;;;;0.52;0.52;;;20.30;99.90;;;;;;5014722;28;20045;-95
2022/05/19 08:29:45;;;;;;;1.00;0.90;;;20.40;99.90;;;;;;5006041;28;20065;-93
2022/05/19 08:32:11;;;;;;;2.60;1.50;;;20.50;99.90;;;;;;5029601;28;20038;-93
2022/05/19 08:34:37;;;;;;;1.05;0.95;;;20.50;99.90;;;;;;5009601;28;20643;-92
2022/05/19 08:37:03;;;;;;;0.45;0.45;;;20.60;99.90;;;;;;5013080;28;20041;-94
2022/05/19 08:39:29;;;;;;;3.47;0.98;;;20.60;99.90;;;;;;5012659;28;20038;-93
2022/05/19 08:42:01;;;;;;;0.95;0.75;;;20.60;99.90;;;;;;5030081;28;20448;-94
2022/05/19 08:44:48;;;;;;;0.32;0.32;;;20.80;99.90;;;;;;5032332;28;20045;-93
2022/05/19 08:47:20;;;;;;;0.93;0.73;;;20.90;99.90;;;;;;5047251;28;20049;-95
2022/05/19 08:49:52;;;;;;;0.30;0.30;;;21.10;99.90;;;;;;5034180;28;20434;-95
2022/05/19 08:52:21;;;;;;;1.58;0.68;;;21.50;99.90;;;;;;5034534;28;20399;-94
2022/05/19 08:54:49;;;;;;;0.65;0.50;;;21.80;99.90;;;;;;5030373;28;20116;-95
2022/05/19 08:57:46;;;;;;;0.55;0.55;;;22.00;99.90;;;;;;5033194;28;20045;-95
2022/05/19 09:00:20;;;;;;;;;;;22.30;99.90;;;;;;5044559;28;20068;-96
2022/05/19 09:02:51;;;;;;;1.20;0.43;;;22.70;99.90;;;;;;5030472;28;19920;-85
2022/05/19 09:05:47;;;;;;;0.98;0.75;;;22.90;99.90;;;;;;5025192;28;20052;-84
2022/05/19 09:08:30;;;;;;;;;;;23.20;99.90;;;;;;5016968;28;20088;-85
2022/05/19 09:11:12;;;;;;;0.55;0.55;;;23.40;99.90;;;;;;5024824;28;19921;-85
2022/05/19 09:13:42;;;;;;;1.10;1.00;;;23.60;99.90;;;;;;5033717;28;20092;-85
2022/05/19 09:16:18;;;;;;;0.75;0.30;;;23.70;99.90;;;;;;5033369;28;20041;-85
2022/05/19 09:18:50;;;;;;;0.30;0.30;;;23.90;99.90;;;;;;5036225;28;20091;-95
2022/05/19 09:21:19;;;;;;;0.73;0.73;;;23.90;99.90;;;;;;5020962;28;20065;-94
2022/05/19 09:23:45;;;;;;;0.50;0.50;;;23.50;99.90;;;;;;5036537;28;20394;-94
2022/05/19 09:26:42;;;;;;;1.25;1.02;;;23.70;99.90;;;;;;5020742;28;20033;-95
2022/05/19 09:29:11;;;;;;;0.30;0.30;;;23.50;99.90;;;;;;5030884;28;20075;-95
2022/05/19 09:32:05;;;;;;;0.73;0.73;;;23.60;99.90;;;;;;5036352;28;20032;-95
2022/05/19 09:34:34;;;;;;;0.65;0.60;;;23.60;99.90;;;;;;5031432;28;20112;-95
2022/05/19 09:37:08;;;;;;;1.70;0.82;;;23.40;99.90;;;;;;5014046;28;20068;-84
2022/05/19 09:39:44;;;;;;;0.13;0.13;;;23.10;99.90;;;;;;5026518;28;20155;-83
2022/05/19 09:42:12;;;;;;;1.15;1.08;;;23.00;99.90;;;;;;5028807;28;20044;-83
2022/05/19 09:44:50;;;;;;;0.80;0.80;;;22.80;99.90;;;;;;5028161;28;20127;-84
2022/05/19 09:47:20;;;;;;;1.73;1.25;;;22.50;99.90;;;;;;5028741;28;20045;-83
2022/05/19 09:49:54;;;;;;;0.55;0.55;;;22.30;99.90;;;;;;5028881;28;20075;-83
2022/05/19 09:52:26;;;;;;;0.57;0.40;;;22.30;99.90;;;;;;5010518;28;20045;-94
2022/05/19 09:55:05;;;;;;;1.45;0.90;;;22.40;99.90;;;;;;5034242;28;20383;-93
2022/05/19 09:57:50;;;;;;;1.85;1.70;;;22.70;99.90;;;;;;5031925;28;20049;-95
2022/05/19 10:00:18;;;;;;;0.80;0.75;;;23.50;99.90;;;;;;5038431;28;20045;-95
2022/05/19 10:02:49;;;;;;;2.50;2.03;;;24.10;99.90;;;;;;5038152;28;20047;-94
2022/05/19 10:05:35;;;;;;;0.88;0.73;;;24.90;99.90;;;;;;5019583;28;20490;-85
2022/05/19 10:08:05;;;;;;;0.70;0.70;;;25.80;99.90;;;;;;5026993;28;20382;-84
2022/05/19 10:10:35;;;;;;;8.18;0.65;;;26.60;99.90;;;;;;5039979;28;20628;-95
2022/05/19 10:13:09;;;;;;;0.63;0.52;;;27.20;99.90;;;;;;5042135;28;20043;-95
2022/05/19 10:15:49;;;;;;;0.68;0.68;;;28.10;99.90;;;;;;5016579;28;20038;-95
2022/05/19 10:18:36;;;;;;;0.22;0.22;;;29.10;98.80;;;;;;5036525;28;20072;-96
2022/05/19 10:21:15;;;;;;;0.30;0.30;;;29.40;98.20;;;;;;5037991;28;20095;-96
2022/05/19 10:24:14;;;;;;;0.60;0.60;;;28.60;97.70;;;;;;5041382;28;20037;-95
2022/05/19 10:26:43;;;;;;;0.50;0.50;;;27.40;99.80;;;;;;5023225;28;20044;-96
2022/05/19 10:32:48;;;;;;;0.65;0.45;;;25.80;99.90;;;;;;5036130;28;20041;-96
2022/05/19 10:35:25;;;;;;;0.80;0.75;;;25.30;99.90;;;;;;5034687;28;20372;-96
2022/05/19 10:38:02;;;;;;;0.57;0.57;;;24.80;99.90;;;;;;5036077;28;20043;-96
2022/05/19 10:40:55;;;;;;;0.77;0.60;;;24.60;99.90;;;;;;5035977;28;20151;-95
2022/05/19 10:43:51;;;;;;;1.02;1.02;;;25.00;99.90;;;;;;5026486;28;20178;-85
2022/05/19 10:46:20;;;;;;;0.83;0.73;;;26.40;99.90;;;;;;5006460;28;20045;-85
2022/05/19 10:49:04;;;;;;;0.70;0.70;;;28.00;99.90;;;;;;5029213;28;20311;-84
2022/05/19 10:51:36;;;;;;;0.20;0.20;;;29.40;99.60;;;;;;5006485;28;20083;-84
2022/05/19 10:54:17;;;;;;;0.28;0.15;;;30.50;97.60;;;;;;5024092;28;20617;-85
2022/05/19 10:57:11;;;;;;;0.52;0.52;;;31.10;93.50;;;;;;5028417;28;20532;-85
2022/05/19 10:59:56;;;;;;;0.25;0.25;;;31.60;92.30;;;;;;5035066;28;20036;-95
2022/05/19 11:02:24;;;;;;;0.35;0.35;;;32.10;92.00;;;;;;5010605;28;20127;-94
2022/05/19 11:05:09;;;;;;;0.22;0.22;;;32.20;88.10;;;;;;5034543;28;20398;-96
2022/05/19 11:07:56;;;;;;;0.80;0.50;;;32.20;86.50;;;;;;5019378;28;20099;-95
2022/05/19 11:10:36;;;;;;;0.60;0.40;;;31.90;85.40;;;;;;5019450;28;20548;-95
2022/05/19 11:13:24;;;;;;;0.40;0.40;;;32.30;86.40;;;;;;5034315;28;20033;-96
2022/05/19 11:16:25;;;;;;;0.10;0.10;;;32.00;84.00;;;;;;5035405;28;20044;-85
2022/05/19 11:19:00;;;;;;;0.10;0.10;;;32.50;84.40;;;;;;4999049;28;20084;-85
2022/05/19 11:21:41;;;;;;;0.20;0.20;;;32.90;84.20;;;;;;5024263;28;20041;-85
2022/05/19 11:26:23;;;;;;;0.50;0.50;;;32.60;80.60;;;;;;5023226;28;20132;-85
2022/05/19 11:27:26;;;;;;;0.30;0.30;;;32.40;78.80;;;;;;5025649;28;20044;-84
2022/05/19 11:29:59;;;;;;;0.13;0.13;;;31.60;82.10;;;;;;5026227;28;20163;-85
2022/05/19 11:32:31;;;;;;;0.43;0.43;;;30.50;84.00;;;;;;5026343;28;20045;-85
2022/05/19 11:35:03;;;;;;;0.45;0.45;;;29.50;87.20;;;;;;5025307;28;20045;-84
2022/05/19 11:37:39;;;;;;;0.50;0.50;;;28.80;89.00;;;;;;5012215;28;20033;-84
2022/05/19 11:40:13;;;;;;;0.20;0.20;;;28.20;90.10;;;;;;5026510;28;20124;-85
2022/05/19 11:42:50;;;;;;;0.55;0.35;;;27.90;90.70;;;;;;5027854;28;20040;-85
2022/05/19 11:45:28;;;;;;;0.20;0.20;;;27.40;90.60;;;;;;5025963;28;21415;-85
2022/05/19 11:58:12;;;;;;;0.17;0.15;;;25.70;94.50;;;;;;5033484;28;20494;-94
2022/05/19 12:00:55;;;;;;;0.43;0.30;;;25.60;95.20;;;;;;5023003;28;20037;-96
2022/05/19 12:03:24;;;;;;;0.25;0.25;;;25.40;95.40;;;;;;5022360;28;20391;-96
2022/05/19 12:06:00;;;;;;;0.22;0.22;;;25.20;97.00;;;;;;5021507;28;20437;-95
2022/05/19 12:08:41;;;;;;;0.30;0.20;;;25.00;97.00;;;;;;5021510;28;20053;-95
2022/05/19 12:11:35;;;;;;;0.10;0.10;;;24.80;98.50;;;;;;5020487;28;20041;-95
2022/05/19 12:14:10;;;;;;;0.15;0.15;;;24.60;99.70;;;;;;5019359;28;20383;-96
2022/05/19 12:16:57;;;;;;;0.20;0.20;;;24.40;99.90;;;;;;5017682;28;20089;-96
2022/05/19 12:19:56;;;;;;;0.10;0.10;;;24.20;99.90;;;;;;5014740;28;20046;-96
2022/05/19 12:22:39;;;;;;;0.30;0.30;;;23.90;99.90;;;;;;5015296;28;20046;-93
2022/05/19 12:25:08;;;;;;;0.80;0.57;;;23.70;99.90;;;;;;5027040;28;21343;-89
2022/05/19 12:27:36;;;;;;;0.90;0.35;;;23.20;99.90;;;;;;5009623;28;20094;-90
2022/05/19 12:33:26;;;;;;;0.10;0.10;;;21.20;99.90;;;;;;5026812;28;20041;-89
2022/05/19 12:36:01;;;;;;;0.00;0.00;;;20.40;99.90;;;;;;5028941;28;20037;-87
2022/05/19 12:38:28;;;;;;;0.10;0.10;;;19.90;99.90;;;;;;5015352;28;20086;-87
2022/05/19 12:40:56;;;;;;;0.00;0.00;;;19.60;99.90;;;;;;5034076;28;20030;-84
2022/05/19 12:43:24;;;;;;;4.38;0.45;;;19.40;99.90;;;;;;5050936;28;20128;-84
2022/05/19 12:45:55;;;;;;;0.00;0.00;;;19.20;99.90;;;;;;5030339;28;20449;-84
2022/05/19 12:48:25;;;;;;;0.00;0.00;;;19.10;99.90;;;;;;5007423;28;20041;-84
2022/05/19 12:51:07;;;;;;;0.00;0.00;;;19.20;99.90;;;;;;5025553;28;20091;-83
2022/05/19 12:54:07;;;;;;;0.15;0.10;;;19.20;99.90;;;;;;5006228;28;20048;-84
2022/05/19 12:56:41;;;;;;;0.20;0.20;;;19.00;99.90;;;;;;4981896;28;20057;-82
2022/05/19 12:59:23;;;;;;;0.13;0.13;;;18.90;99.90;;;;;;5007961;28;20050;-82
2022/05/19 13:01:52;;;;;;;0.13;0.13;;;18.90;99.90;;;;;;5022628;28;20041;-86
2022/05/19 13:04:38;;;;;;;0.10;0.10;;;18.70;99.90;;;;;;5023006;28;20103;-82
2022/05/19 13:07:25;;;;;;;0.10;0.10;;;18.80;99.90;;;;;;5025552;28;20395;-82
2022/05/19 13:10:08;;;;;;;0.00;0.00;;;18.70;99.90;;;;;;5026681;28;20369;-82
2022/05/19 13:12:57;;;;;;;0.15;0.15;;;18.70;99.90;;;;;;5024759;28;20073;-89
2022/05/19 13:15:32;;;;;;;0.10;0.10;;;18.60;99.90;;;;;;5002438;28;20085;-89
2022/05/19 13:18:03;;;;;;;0.00;0.00;;;18.50;99.90;;;;;;5011260;28;20033;-90
2022/05/19 13:20:40;;;;;;;0.45;0.43;;;18.40;99.90;;;;;;5025761;28;20049;-91
2022/05/19 13:23:18;;;;;;;0.35;0.35;;;18.40;99.90;;;;;;5009837;28;20503;-89
2022/05/19 13:25:48;;;;;;;0.10;0.10;;;18.30;99.90;;;;;;5024228;28;20099;-89
2022/05/19 13:31:05;;;;;;;0.20;0.20;;;18.30;99.90;;;;;;5025188;28;20048;-82
2022/05/19 13:33:40;;;;;;;0.08;0.08;;;18.20;99.90;;;;;;5041834;28;20033;-84
2022/05/19 13:36:08;;;;;;;0.30;0.30;;;18.20;99.90;;;;;;5012246;28;20045;-83
2022/05/19 13:38:35;;;;;;;0.10;0.05;;;18.20;99.90;;;;;;5013930;28;20361;-83